Key Fjord — ZDIJ3 — position and weather

sailwx.info

Track history (hours):
 
Tides and Currents Weather Stations Pressure Air Temp Water Temp Dewpoint Dewpoint Depression Visibility Wind Speed Wind Dir Waves Ship Positions

Key Fjord

Last reported at 2018-Feb-23 09:27 UTC. Time now 2018-Feb-23 12:22 UTC.
Position N 53°35' E 005°38'.

Length 100 m; draft 6.5 m.

Type: Ship (hazmat cat B). MMSI: 236445000.

Date/timePositionNaut miles runAvg speedWind from/ knotsBaromVisibWave heightAir tempDewpointWater temp
2018-Feb-23 09:27N 53°35' E 005°38'1010.6
2018-Feb-23 08:29N 53°32' E 005°22'610.2
2018-Feb-23 07:52N 53°30' E 005°12'6 9.6
2018-Feb-23 07:17N 53°28' E 005°03'3 9.2
2018-Feb-23 06:58N 53°27' E 004°59'4 9.1
2018-Feb-23 06:30N 53°25' E 004°52'5 8.9
2018-Feb-23 05:59N 53°23' E 004°45'4 8.8
2018-Feb-23 05:30N 53°20' E 004°41'5 9.4
2018-Feb-23 04:59N 53°16' E 004°38'5 9.4
2018-Feb-23 04:28N 53°11' E 004°35'4 9.5
2018-Feb-23 04:01N 53°07' E 004°31'5 9.4
2018-Feb-23 03:30N 53°03' E 004°27'5 9.6
2018-Feb-23 03:00N 52°59' E 004°22'5 9.8
2018-Feb-23 02:30N 52°55' E 004°19'5 9.7
2018-Feb-23 01:59N 52°50' E 004°16'5 9.6
2018-Feb-23 01:30N 52°46' E 004°11'5 9.8
2018-Feb-23 00:59N 52°42' E 004°07'510.1
2018-Feb-23 00:30N 52°38' E 004°02'510.2
2018-Feb-23 00:01N 52°34' E 003°58'510.2
2018-Feb-22 23:30N 52°29' E 003°55'510.5
2018-Feb-22 23:00N 52°24' E 003°53'510.8
2018-Feb-22 22:30N 52°19' E 003°52'611.1
2018-Feb-22 22:00N 52°13' E 003°53'611.1
2018-Feb-22 21:30N 52°08' E 003°54'5 9.1
2018-Feb-22 21:00N 52°03' E 003°53'510.0
2018-Feb-22 20:30N 52°01' E 003°60'611.4
2018-Feb-22 20:00N 51°58' E 004°08'510.5
2018-Feb-22 19:30N 51°55' E 004°14'5 9.2
2018-Feb-22 19:00N 51°54' E 004°22'3 5.7
2018-Feb-22 18:28N 51°54' E 004°27'0 0.0
2018-Feb-22 17:58N 51°54' E 004°27'0 0.0
2018-Feb-22 17:28N 51°54' E 004°27'0 0.0
2018-Feb-22 16:58N 51°54' E 004°27'0 0.0
2018-Feb-22 16:28N 51°54' E 004°27'0 0.0
2018-Feb-22 15:55N 51°54' E 004°27'0 0.0
2018-Feb-22 15:28N 51°54' E 004°27'0 0.0
2018-Feb-22 14:58N 51°54' E 004°27'0 0.0
2018-Feb-22 14:25N 51°54' E 004°27'0 0.0
2018-Feb-22 13:58N 51°54' E 004°27'0 0.0
2018-Feb-22 13:28N 51°54' E 004°27'0 0.0
2018-Feb-22 12:58N 51°54' E 004°27'0 0.0
2018-Feb-22 12:28N 51°54' E 004°27'0 0.0
2018-Feb-22 11:58N 51°54' E 004°27'0 0.0
2018-Feb-22 11:28N 51°54' E 004°27'0 0.0
2018-Feb-22 10:58N 51°54' E 004°27'0 0.0
2018-Feb-22 10:25N 51°54' E 004°27'0 0.0
2018-Feb-22 09:58N 51°54' E 004°27'0 0.0
2018-Feb-22 09:28N 51°54' E 004°27'0 0.0
2018-Feb-22 08:58N 51°54' E 004°27'0 0.0
2018-Feb-22 08:28N 51°54' E 004°27'0 0.0
2018-Feb-22 07:58N 51°54' E 004°27'0 0.0
2018-Feb-22 07:25N 51°54' E 004°27'0 0.0
2018-Feb-22 06:55N 51°54' E 004°27'0 0.0
2018-Feb-22 06:28N 51°54' E 004°27'0 0.0
2018-Feb-22 05:55N 51°54' E 004°27'0 0.0
2018-Feb-22 05:25N 51°54' E 004°27'0 0.0
2018-Feb-22 04:58N 51°54' E 004°27'0 0.0
2018-Feb-22 04:28N 51°54' E 004°27'0 0.0
2018-Feb-22 03:55N 51°54' E 004°27'0 0.0
2018-Feb-22 03:25N 51°54' E 004°27'0 0.0
2018-Feb-22 02:58N 51°54' E 004°27'0 0.0
2018-Feb-22 02:28N 51°54' E 004°27'0 0.0
2018-Feb-22 01:55N 51°54' E 004°27'0 0.0
2018-Feb-22 01:28N 51°54' E 004°27'0 0.0
2018-Feb-22 00:58N 51°54' E 004°27'0 0.0
2018-Feb-22 00:28N 51°54' E 004°27'0 0.0
2018-Feb-21 23:58N 51°54' E 004°27'0 0.0
2018-Feb-21 23:25N 51°54' E 004°27'0 0.0
2018-Feb-21 22:58N 51°54' E 004°27'0 0.0
2018-Feb-21 22:28N 51°54' E 004°27'0 0.0
2018-Feb-21 21:58N 51°54' E 004°27'0 0.0
2018-Feb-21 21:25N 51°54' E 004°27'0 0.0
2018-Feb-21 20:58N 51°54' E 004°27'0 0.0
2018-Feb-21 20:28N 51°54' E 004°27'0 0.4
2018-Feb-21 20:00N 51°54' E 004°26'3 6.7
2018-Feb-21 19:31N 51°54' E 004°21'0 0.8
2018-Feb-21 18:58N 51°54' E 004°20'0 0.0
2018-Feb-21 18:28N 51°54' E 004°20'0 0.0
2018-Feb-21 17:55N 51°54' E 004°20'0 0.0
2018-Feb-21 17:25N 51°54' E 004°20'0 0.0
2018-Feb-21 16:58N 51°54' E 004°20'0 0.0
2018-Feb-21 16:28N 51°54' E 004°20'0 0.0
2018-Feb-21 15:58N 51°54' E 004°20'0 0.0
2018-Feb-21 15:25N 51°54' E 004°20'0 0.0
2018-Feb-21 14:52N 51°54' E 004°20'0 0.0
2018-Feb-21 14:25N 51°54' E 004°20'0 0.0
2018-Feb-21 13:58N 51°54' E 004°20'0 0.0
2018-Feb-21 13:25N 51°54' E 004°20'0 0.0
2018-Feb-21 12:55N 51°54' E 004°20'0 0.0
2018-Feb-21 12:22N 51°54' E 004°20'0 0.0
2018-Feb-21 11:58N 51°54' E 004°20'0 0.0
2018-Feb-21 11:28N 51°54' E 004°20'0 0.0
2018-Feb-21 10:58N 51°54' E 004°20'0 0.0
2018-Feb-21 10:28N 51°54' E 004°20'0 0.0
2018-Feb-21 09:58N 51°54' E 004°20'0 0.0
2018-Feb-21 09:28N 51°54' E 004°20'0 0.0
2018-Feb-21 08:52N 51°54' E 004°20'0 0.0
2018-Feb-21 08:19N 51°54' E 004°20'0 0.0
2018-Feb-21 07:55N 51°54' E 004°20'0 0.0
2018-Feb-21 07:28N 51°54' E 004°20'0 0.0
2018-Feb-21 06:58N 51°54' E 004°20'0 0.0
2018-Feb-21 06:28N 51°54' E 004°20'0 0.0
2018-Feb-21 05:52N 51°54' E 004°20'0 0.0
2018-Feb-21 05:22N 51°54' E 004°20'0 0.0
2018-Feb-21 04:58N 51°54' E 004°20'0 0.0
2018-Feb-21 04:28N 51°54' E 004°20'0 0.0
2018-Feb-21 03:52N 51°54' E 004°20'0 0.0
2018-Feb-21 03:28N 51°54' E 004°20'0 0.0
2018-Feb-21 02:58N 51°54' E 004°20'0 0.0
2018-Feb-21 02:28N 51°54' E 004°20'1 1.6
2018-Feb-21 01:58N 51°54' E 004°21'0 0.0
2018-Feb-21 01:28N 51°54' E 004°21'0 0.0
2018-Feb-21 00:58N 51°54' E 004°21'0 0.0
2018-Feb-21 00:28N 51°54' E 004°21'0 0.0
2018-Feb-20 23:58N 51°54' E 004°21'0 0.0
2018-Feb-20 23:28N 51°54' E 004°21'0 0.0
2018-Feb-20 22:58N 51°54' E 004°21'0 0.0
2018-Feb-20 22:25N 51°54' E 004°21'0 0.0
2018-Feb-20 21:58N 51°54' E 004°21'0 0.0
2018-Feb-20 21:28N 51°54' E 004°21'0 0.0
2018-Feb-20 20:58N 51°54' E 004°21'0 0.0
2018-Feb-20 20:25N 51°54' E 004°21'0 0.0
2018-Feb-20 19:58N 51°54' E 004°21'0 0.0
2018-Feb-20 19:28N 51°54' E 004°21'0 0.0
2018-Feb-20 18:58N 51°54' E 004°21'0 0.0
2018-Feb-20 18:28N 51°54' E 004°21'0 0.0
2018-Feb-20 17:58N 51°54' E 004°21'0 0.0
2018-Feb-20 17:28N 51°54' E 004°21'0 0.0
2018-Feb-20 16:58N 51°54' E 004°21'0 0.0
2018-Feb-20 16:28N 51°54' E 004°21'0 0.0
2018-Feb-20 15:58N 51°54' E 004°21'0 0.0
2018-Feb-20 15:28N 51°54' E 004°21'0 0.0
2018-Feb-20 14:58N 51°54' E 004°21'0 0.0
2018-Feb-20 14:25N 51°54' E 004°21'0 0.0
2018-Feb-20 13:58N 51°54' E 004°21'0 0.0
2018-Feb-20 13:30N 51°54' E 004°21'1 2.2
2018-Feb-20 13:00N 51°54' E 004°20'4 8.3
2018-Feb-20 12:30N 51°55' E 004°14'5 9.0
2018-Feb-20 12:00N 51°58' E 004°08'510.0
2018-Feb-20 11:30N 51°60' E 004°00'5 9.8
2018-Feb-20 11:00N 51°59' E 003°52'4 7.7
2018-Feb-20 10:30N 51°58' E 003°47'1 1.8
2018-Feb-20 10:00N 51°57' E 003°46'0 0.1
2018-Feb-20 09:30N 51°57' E 003°46'0 0.1
2018-Feb-20 09:00N 51°57' E 003°46'0 0.0
2018-Feb-20 08:27N 51°57' E 003°46'0 0.1
2018-Feb-20 07:57N 51°57' E 003°46'0 0.1
2018-Feb-20 07:30N 51°57' E 003°46'0 0.0
2018-Feb-20 07:00N 51°57' E 003°46'0 0.0
2018-Feb-20 06:30N 51°57' E 003°46'0 0.0
2018-Feb-20 06:00N 51°57' E 003°46'0 0.0
2018-Feb-20 05:30N 51°57' E 003°46'0 0.0
2018-Feb-20 05:00N 51°57' E 003°46'0 0.0
2018-Feb-20 04:27N 51°57' E 003°46'0 0.0
2018-Feb-20 04:00N 51°57' E 003°46'0 0.0
2018-Feb-20 03:30N 51°57' E 003°46'0 0.0
2018-Feb-20 03:00N 51°57' E 003°46'0 0.1
2018-Feb-20 02:30N 51°57' E 003°46'0 0.1
2018-Feb-20 02:00N 51°57' E 003°46'0 0.0
2018-Feb-20 01:30N 51°57' E 003°46'0 0.1
2018-Feb-20 01:00N 51°57' E 003°46'0 0.0
2018-Feb-20 00:30N 51°57' E 003°46'0 0.0
2018-Feb-20 00:00N 51°57' E 003°46'0 0.0
2018-Feb-19 23:30N 51°57' E 003°46'0 0.0
2018-Feb-19 23:00N 51°57' E 003°46'0 0.0
2018-Feb-19 22:30N 51°57' E 003°46'0 0.0
2018-Feb-19 22:00N 51°57' E 003°46'0 0.0
2018-Feb-19 21:24N 51°57' E 003°46'0 0.1
2018-Feb-19 20:57N 51°57' E 003°46'0 0.1
2018-Feb-19 20:30N 51°57' E 003°46'0 0.1
2018-Feb-19 20:00N 51°57' E 003°46'0 0.0
2018-Feb-19 19:30N 51°57' E 003°46'0 0.0
2018-Feb-19 19:00N 51°57' E 003°46'0 0.0
2018-Feb-19 18:24N 51°57' E 003°46'0 0.0
2018-Feb-19 17:54N 51°57' E 003°46'0 0.0
2018-Feb-19 17:27N 51°57' E 003°46'0 0.0
2018-Feb-19 17:00N 51°57' E 003°46'0 0.0
2018-Feb-19 16:30N 51°57' E 003°46'0 0.0
2018-Feb-19 16:00N 51°57' E 003°46'0 0.0
2018-Feb-19 15:30N 51°57' E 003°46'0 0.0
2018-Feb-19 15:00N 51°57' E 003°46'0 0.1
2018-Feb-19 14:30N 51°57' E 003°46'0 0.1
2018-Feb-19 14:00N 51°57' E 003°46'0 0.0
2018-Feb-19 13:24N 51°57' E 003°46'0 0.1
2018-Feb-19 13:00N 51°57' E 003°46'0 0.1
2018-Feb-19 12:30N 51°57' E 003°46'0 0.0
2018-Feb-19 12:00N 51°57' E 003°46'0 0.0
2018-Feb-19 11:30N 51°57' E 003°46'0 0.0
2018-Feb-19 11:00N 51°57' E 003°46'0 0.0
2018-Feb-19 10:24N 51°57' E 003°46'0 0.0
2018-Feb-19 09:57N 51°57' E 003°46'0 0.1
2018-Feb-19 09:30N 51°57' E 003°46'0 0.1
2018-Feb-19 09:00N 51°57' E 003°46'0 0.1
2018-Feb-19 08:30N 51°57' E 003°46'0 0.0
2018-Feb-19 08:00N 51°57' E 003°46'0 0.0
2018-Feb-19 07:30N 51°57' E 003°46'0 0.0
2018-Feb-19 06:57N 51°57' E 003°46'0 0.0
2018-Feb-19 06:30N 51°57' E 003°46'0 0.0
2018-Feb-19 06:00N 51°57' E 003°46'0 0.0
2018-Feb-19 05:21N 51°57' E 003°46'0 0.0
2018-Feb-19 05:00N 51°57' E 003°46'0 0.0
2018-Feb-19 04:27N 51°57' E 003°46'0 0.0
2018-Feb-19 03:54N 51°57' E 003°46'0 0.0
2018-Feb-19 03:30N 51°57' E 003°46'1 1.9
2018-Feb-19 03:00N 51°58' E 003°46'510.4
2018-Feb-19 02:30N 52°03' E 003°45'611.2
2018-Feb-19 02:00N 52°09' E 003°45'612.1
2018-Feb-19 01:31N 52°15' E 003°46'612.4
2018-Feb-19 01:00N 52°21' E 003°48'612.8
2018-Feb-19 00:30N 52°27' E 003°50'713.0
2018-Feb-18 23:59N 52°34' E 003°52'613.2
2018-Feb-18 23:31N 52°40' E 003°54'713.2
2018-Feb-18 22:58N 52°47' E 003°57'713.2
2018-Feb-18 22:28N 52°53' E 003°59'612.5
2018-Feb-18 21:58N 52°59' E 004°04'712.5
2018-Feb-18 21:24N 53°04' E 004°12'512.0
2018-Feb-18 20:57N 53°08' E 004°18'611.6
2018-Feb-18 20:28N 53°12' E 004°24'511.5
2018-Feb-18 20:00N 53°17' E 004°27'711.1
2018-Feb-18 19:21N 53°24' E 004°32'410.9
2018-Feb-18 18:57N 53°28' E 004°34'511.1
2018-Feb-18 18:30N 53°33' E 004°37'811.3
2018-Feb-18 17:47N 53°40' E 004°42'311.9
2018-Feb-18 17:30N 53°43' E 004°44'19811.7
2018-Feb-18 00:30N 56°40' E 007°23'711.8
2018-Feb-17 23:57N 56°45' E 007°29'511.9
2018-Feb-17 23:30N 56°50' E 007°34'612.0
2018-Feb-17 23:00N 56°55' E 007°39'612.0
2018-Feb-17 22:29N 56°60' E 007°46'611.9
2018-Feb-17 22:01N 57°04' E 007°53'6312.2
2018-Feb-17 16:52N 57°54' E 009°04'612.9
2018-Feb-17 16:27N 57°58' E 009°11'612.8
2018-Feb-17 15:59N 58°03' E 009°18'712.4
2018-Feb-17 15:23N 58°09' E 009°26'3012.7
2018-Feb-17 13:04N 58°32' E 010°01'112.9
2018-Feb-17 13:01N 58°32' E 010°02'612.7
2018-Feb-17 12:31N 58°38' E 010°09'612.6
2018-Feb-17 12:00N 58°42' E 010°17'612.5
2018-Feb-17 11:31N 58°47' E 010°24'611.7
2018-Feb-17 11:01N 58°52' E 010°31'612.3
2018-Feb-17 10:30N 58°57' E 010°38'612.4
2018-Feb-17 10:01N 59°02' E 010°46'611.8
2018-Feb-17 09:31N 59°01' E 010°58'611.4
2018-Feb-17 09:00N 59°07' E 010°58'5 9.3
2018-Feb-17 08:30N 59°12' E 010°57'0 0.0
2018-Feb-17 07:59N 59°12' E 010°57'0 0.0
2018-Feb-17 07:29N 59°12' E 010°57'0 0.0
2018-Feb-17 06:58N 59°12' E 010°57'0 0.0
2018-Feb-17 06:28N 59°12' E 010°57'0 0.0
2018-Feb-17 05:59N 59°12' E 010°57'0 0.0
2018-Feb-17 05:29N 59°12' E 010°57'0 0.0
2018-Feb-17 04:59N 59°12' E 010°57'0 0.0
2018-Feb-17 04:29N 59°12' E 010°57'0 0.0
2018-Feb-17 03:59N 59°12' E 010°57'0 0.0
2018-Feb-17 03:29N 59°12' E 010°57'0 0.0
2018-Feb-17 02:59N 59°12' E 010°57'0 0.0
2018-Feb-17 02:29N 59°12' E 010°57'0 0.0
2018-Feb-17 01:59N 59°12' E 010°57'0 0.0
2018-Feb-17 01:29N 59°12' E 010°57'0 0.0
2018-Feb-17 00:58N 59°12' E 010°57'0 0.0
2018-Feb-17 00:29N 59°12' E 010°57'0 0.0
2018-Feb-16 23:59N 59°12' E 010°57'0 0.0
2018-Feb-16 23:29N 59°12' E 010°57'0 0.0
2018-Feb-16 22:59N 59°12' E 010°57'0 0.0
2018-Feb-16 22:29N 59°12' E 010°57'0 0.0
2018-Feb-16 21:58N 59°12' E 010°57'0 0.0
2018-Feb-16 21:29N 59°12' E 010°57'0 0.0
2018-Feb-16 20:59N 59°12' E 010°57'0 0.0
2018-Feb-16 20:28N 59°12' E 010°57'0 0.0
2018-Feb-16 19:59N 59°12' E 010°57'0 0.0
2018-Feb-16 19:28N 59°12' E 010°57'0 0.0
2018-Feb-16 18:59N 59°12' E 010°57'0 0.0
2018-Feb-16 18:28N 59°12' E 010°57'0 0.0
2018-Feb-16 17:59N 59°12' E 010°57'0 0.0
2018-Feb-16 17:29N 59°12' E 010°57'0 0.0
2018-Feb-16 16:59N 59°12' E 010°57'0 0.0
2018-Feb-16 16:28N 59°12' E 010°57'0 0.0
2018-Feb-16 15:58N 59°12' E 010°57'0 0.0
2018-Feb-16 15:28N 59°12' E 010°57'0 0.0
2018-Feb-16 14:59N 59°12' E 010°57'0 0.0
2018-Feb-16 14:29N 59°12' E 010°57'0 0.0
2018-Feb-16 13:59N 59°12' E 010°57'0 0.0
2018-Feb-16 13:29N 59°12' E 010°57'0 0.0
2018-Feb-16 12:59N 59°12' E 010°57'0 0.0
2018-Feb-16 12:29N 59°12' E 010°57'0 0.0
2018-Feb-16 12:01N 59°12' E 010°57'3 6.1
2018-Feb-16 11:31N 59°09' E 010°58'611.4
2018-Feb-16 11:00N 59°03' E 010°58'4 8.4
2018-Feb-16 10:31N 59°01' E 010°50'5 9.8
2018-Feb-16 10:01N 58°59' E 010°43'611.8
2018-Feb-16 09:30N 58°53' E 010°42'612.6
2018-Feb-16 09:00N 58°46' E 010°42'714.0
2018-Feb-16 08:30N 58°40' E 010°46'713.8
2018-Feb-16 08:00N 58°33' E 010°51'713.5
2018-Feb-16 07:31N 58°27' E 010°55'714.4
2018-Feb-16 07:01N 58°20' E 011°00'714.2
2018-Feb-16 06:31N 58°14' E 011°05'714.2
2018-Feb-16 06:01N 58°07' E 011°09'714.6
2018-Feb-16 05:31N 57°60' E 011°14'713.7
2018-Feb-16 05:00N 57°53' E 011°19'612.0
2018-Feb-16 04:30N 57°48' E 011°22'611.6
2018-Feb-16 04:01N 57°42' E 011°26'611.0
2018-Feb-16 03:30N 57°38' E 011°32'5 9.2
2018-Feb-16 03:00N 57°38' E 011°41'5 9.0
2018-Feb-16 02:30N 57°40' E 011°47'0 0.3
2018-Feb-16 02:00N 57°40' E 011°47'0 0.0
2018-Feb-16 01:30N 57°40' E 011°47'0 0.0
2018-Feb-16 01:00N 57°40' E 011°47'0 0.0
2018-Feb-16 00:27N 57°40' E 011°47'0 0.0
2018-Feb-16 00:00N 57°40' E 011°47'0 0.0
2018-Feb-15 23:30N 57°40' E 011°47'0 0.0
2018-Feb-15 23:00N 57°40' E 011°47'0 0.0
2018-Feb-15 22:30N 57°40' E 011°47'0 0.1
2018-Feb-15 22:00N 57°40' E 011°47'0 0.1
2018-Feb-15 21:30N 57°40' E 011°47'3 6.3
2018-Feb-15 21:01N 57°39' E 011°42'612.0
2018-Feb-15 20:30N 57°33' E 011°38'611.9
2018-Feb-15 20:00N 57°27' E 011°38'612.4
2018-Feb-15 19:30N 57°21' E 011°40'612.8
2018-Feb-15 19:00N 57°15' E 011°41'713.1
2018-Feb-15 18:30N 57°08' E 011°40'613.1
2018-Feb-15 18:00N 57°02' E 011°44'4013.0
2018-Feb-15 14:54N 56°24' E 012°08'513.0
2018-Feb-15 14:30N 56°20' E 012°15'713.5
2018-Feb-15 14:00N 56°15' E 012°22'713.3
2018-Feb-15 13:30N 56°10' E 012°30'816.4
2018-Feb-15 13:00N 56°03' E 012°39'714.1
2018-Feb-15 12:31N 55°57' E 012°43'713.3
2018-Feb-15 12:00N 55°50' E 012°44'713.1
2018-Feb-15 11:31N 55°44' E 012°41'713.6
2018-Feb-15 11:01N 55°37' E 012°42'510.9
2018-Feb-15 10:31N 55°32' E 012°43'612.8
2018-Feb-15 10:00N 55°25' E 012°41'612.5
2018-Feb-15 09:30N 55°19' E 012°41'611.9
2018-Feb-15 09:00N 55°16' E 012°50'612.3
2018-Feb-15 08:31N 55°16' E 013°01'612.2
2018-Feb-15 08:00N 55°15' E 013°12'612.4
2018-Feb-15 07:30N 55°15' E 013°23'1312.2
2018-Feb-15 06:25N 55°14' E 013°46'812.4
2018-Feb-15 05:48N 55°14' E 013°59'412.4
2018-Feb-15 05:28N 55°14' E 014°07'612.1
2018-Feb-15 05:00N 55°14' E 014°17'611.8
2018-Feb-15 04:30N 55°19' E 014°23'611.9
2018-Feb-15 04:01N 55°23' E 014°31'612.1
2018-Feb-15 03:29N 55°26' E 014°40'612.2
2018-Feb-15 03:01N 55°29' E 014°49'612.1
2018-Feb-15 02:31N 55°31' E 014°59'612.1
2018-Feb-15 02:00N 55°33' E 015°09'612.1
2018-Feb-15 01:31N 55°34' E 015°19'612.1
2018-Feb-15 01:00N 55°36' E 015°30'612.3
2018-Feb-15 00:30N 55°38' E 015°40'612.3
2018-Feb-15 00:01N 55°41' E 015°50'612.3
2018-Feb-14 23:30N 55°43' E 016°00'612.3
2018-Feb-14 23:01N 55°44' E 016°11'612.5
2018-Feb-14 22:30N 55°46' E 016°22'612.4
2018-Feb-14 22:01N 55°47' E 016°32'612.4
2018-Feb-14 21:30N 55°49' E 016°43'612.3
2018-Feb-14 21:00N 55°51' E 016°53'  
Track history (hours):
 
Tides and Currents Weather Stations Pressure Air Temp Water Temp Dewpoint Dewpoint Depression Visibility Wind Speed Wind Dir Waves Ship Positions

Key Fjord

Last reported at 2018-Feb-23 09:27 UTC. Time now 2018-Feb-23 12:22 UTC.
Position N 53°35' E 005°38'.

Length 100 m; draft 6.5 m.

Type: Ship (hazmat cat B). MMSI: 236445000.

Date/timePositionNaut miles runAvg speedWind from/ knotsBaromVisibWave heightAir tempDewpointWater temp
2018-Feb-23 09:27N 53°35' E 005°38'1010.6
2018-Feb-23 08:29N 53°32' E 005°22'610.2
2018-Feb-23 07:52N 53°30' E 005°12'6 9.6
2018-Feb-23 07:17N 53°28' E 005°03'3 9.2
2018-Feb-23 06:58N 53°27' E 004°59'4 9.1
2018-Feb-23 06:30N 53°25' E 004°52'5 8.9
2018-Feb-23 05:59N 53°23' E 004°45'4 8.8
2018-Feb-23 05:30N 53°20' E 004°41'5 9.4
2018-Feb-23 04:59N 53°16' E 004°38'5 9.4
2018-Feb-23 04:28N 53°11' E 004°35'4 9.5
2018-Feb-23 04:01N 53°07' E 004°31'5 9.4
2018-Feb-23 03:30N 53°03' E 004°27'5 9.6
2018-Feb-23 03:00N 52°59' E 004°22'5 9.8
2018-Feb-23 02:30N 52°55' E 004°19'5 9.7
2018-Feb-23 01:59N 52°50' E 004°16'5 9.6
2018-Feb-23 01:30N 52°46' E 004°11'5 9.8
2018-Feb-23 00:59N 52°42' E 004°07'510.1
2018-Feb-23 00:30N 52°38' E 004°02'510.2
2018-Feb-23 00:01N 52°34' E 003°58'510.2
2018-Feb-22 23:30N 52°29' E 003°55'510.5
2018-Feb-22 23:00N 52°24' E 003°53'510.8
2018-Feb-22 22:30N 52°19' E 003°52'611.1
2018-Feb-22 22:00N 52°13' E 003°53'611.1
2018-Feb-22 21:30N 52°08' E 003°54'5 9.1
2018-Feb-22 21:00N 52°03' E 003°53'510.0
2018-Feb-22 20:30N 52°01' E 003°60'611.4
2018-Feb-22 20:00N 51°58' E 004°08'510.5
2018-Feb-22 19:30N 51°55' E 004°14'5 9.2
2018-Feb-22 19:00N 51°54' E 004°22'3 5.7
2018-Feb-22 18:28N 51°54' E 004°27'0 0.0
2018-Feb-22 17:58N 51°54' E 004°27'0 0.0
2018-Feb-22 17:28N 51°54' E 004°27'0 0.0
2018-Feb-22 16:58N 51°54' E 004°27'0 0.0
2018-Feb-22 16:28N 51°54' E 004°27'0 0.0
2018-Feb-22 15:55N 51°54' E 004°27'0 0.0
2018-Feb-22 15:28N 51°54' E 004°27'0 0.0
2018-Feb-22 14:58N 51°54' E 004°27'0 0.0
2018-Feb-22 14:25N 51°54' E 004°27'0 0.0
2018-Feb-22 13:58N 51°54' E 004°27'0 0.0
2018-Feb-22 13:28N 51°54' E 004°27'0 0.0
2018-Feb-22 12:58N 51°54' E 004°27'0 0.0
2018-Feb-22 12:28N 51°54' E 004°27'0 0.0
2018-Feb-22 11:58N 51°54' E 004°27'0 0.0
2018-Feb-22 11:28N 51°54' E 004°27'0 0.0
2018-Feb-22 10:58N 51°54' E 004°27'0 0.0
2018-Feb-22 10:25N 51°54' E 004°27'0 0.0
2018-Feb-22 09:58N 51°54' E 004°27'0 0.0
2018-Feb-22 09:28N 51°54' E 004°27'0 0.0
2018-Feb-22 08:58N 51°54' E 004°27'0 0.0
2018-Feb-22 08:28N 51°54' E 004°27'0 0.0
2018-Feb-22 07:58N 51°54' E 004°27'0 0.0
2018-Feb-22 07:25N 51°54' E 004°27'0 0.0
2018-Feb-22 06:55N 51°54' E 004°27'0 0.0
2018-Feb-22 06:28N 51°54' E 004°27'0 0.0
2018-Feb-22 05:55N 51°54' E 004°27'0 0.0
2018-Feb-22 05:25N 51°54' E 004°27'0 0.0
2018-Feb-22 04:58N 51°54' E 004°27'0 0.0
2018-Feb-22 04:28N 51°54' E 004°27'0 0.0
2018-Feb-22 03:55N 51°54' E 004°27'0 0.0
2018-Feb-22 03:25N 51°54' E 004°27'0 0.0
2018-Feb-22 02:58N 51°54' E 004°27'0 0.0
2018-Feb-22 02:28N 51°54' E 004°27'0 0.0
2018-Feb-22 01:55N 51°54' E 004°27'0 0.0
2018-Feb-22 01:28N 51°54' E 004°27'0 0.0
2018-Feb-22 00:58N 51°54' E 004°27'0 0.0
2018-Feb-22 00:28N 51°54' E 004°27'0 0.0
2018-Feb-21 23:58N 51°54' E 004°27'0 0.0
2018-Feb-21 23:25N 51°54' E 004°27'0 0.0
2018-Feb-21 22:58N 51°54' E 004°27'0 0.0
2018-Feb-21 22:28N 51°54' E 004°27'0 0.0
2018-Feb-21 21:58N 51°54' E 004°27'0 0.0
2018-Feb-21 21:25N 51°54' E 004°27'0 0.0
2018-Feb-21 20:58N 51°54' E 004°27'0 0.0
2018-Feb-21 20:28N 51°54' E 004°27'0 0.4
2018-Feb-21 20:00N 51°54' E 004°26'3 6.7
2018-Feb-21 19:31N 51°54' E 004°21'0 0.8
2018-Feb-21 18:58N 51°54' E 004°20'0 0.0
2018-Feb-21 18:28N 51°54' E 004°20'0 0.0
2018-Feb-21 17:55N 51°54' E 004°20'0 0.0
2018-Feb-21 17:25N 51°54' E 004°20'0 0.0
2018-Feb-21 16:58N 51°54' E 004°20'0 0.0
2018-Feb-21 16:28N 51°54' E 004°20'0 0.0
2018-Feb-21 15:58N 51°54' E 004°20'0 0.0
2018-Feb-21 15:25N 51°54' E 004°20'0 0.0
2018-Feb-21 14:52N 51°54' E 004°20'0 0.0
2018-Feb-21 14:25N 51°54' E 004°20'0 0.0
2018-Feb-21 13:58N 51°54' E 004°20'0 0.0
2018-Feb-21 13:25N 51°54' E 004°20'0 0.0
2018-Feb-21 12:55N 51°54' E 004°20'0 0.0
2018-Feb-21 12:22N 51°54' E 004°20'0 0.0
2018-Feb-21 11:58N 51°54' E 004°20'0 0.0
2018-Feb-21 11:28N 51°54' E 004°20'0 0.0
2018-Feb-21 10:58N 51°54' E 004°20'0 0.0
2018-Feb-21 10:28N 51°54' E 004°20'0 0.0
2018-Feb-21 09:58N 51°54' E 004°20'0 0.0
2018-Feb-21 09:28N 51°54' E 004°20'0 0.0
2018-Feb-21 08:52N 51°54' E 004°20'0 0.0
2018-Feb-21 08:19N 51°54' E 004°20'0 0.0
2018-Feb-21 07:55N 51°54' E 004°20'0 0.0
2018-Feb-21 07:28N 51°54' E 004°20'0 0.0
2018-Feb-21 06:58N 51°54' E 004°20'0 0.0
2018-Feb-21 06:28N 51°54' E 004°20'0 0.0
2018-Feb-21 05:52N 51°54' E 004°20'0 0.0
2018-Feb-21 05:22N 51°54' E 004°20'0 0.0
2018-Feb-21 04:58N 51°54' E 004°20'0 0.0
2018-Feb-21 04:28N 51°54' E 004°20'0 0.0
2018-Feb-21 03:52N 51°54' E 004°20'0 0.0
2018-Feb-21 03:28N 51°54' E 004°20'0 0.0
2018-Feb-21 02:58N 51°54' E 004°20'0 0.0
2018-Feb-21 02:28N 51°54' E 004°20'1 1.6
2018-Feb-21 01:58N 51°54' E 004°21'0 0.0
2018-Feb-21 01:28N 51°54' E 004°21'0 0.0
2018-Feb-21 00:58N 51°54' E 004°21'0 0.0
2018-Feb-21 00:28N 51°54' E 004°21'0 0.0
2018-Feb-20 23:58N 51°54' E 004°21'0 0.0
2018-Feb-20 23:28N 51°54' E 004°21'0 0.0
2018-Feb-20 22:58N 51°54' E 004°21'0 0.0
2018-Feb-20 22:25N 51°54' E 004°21'0 0.0
2018-Feb-20 21:58N 51°54' E 004°21'0 0.0
2018-Feb-20 21:28N 51°54' E 004°21'0 0.0
2018-Feb-20 20:58N 51°54' E 004°21'0 0.0
2018-Feb-20 20:25N 51°54' E 004°21'0 0.0
2018-Feb-20 19:58N 51°54' E 004°21'0 0.0
2018-Feb-20 19:28N 51°54' E 004°21'0 0.0
2018-Feb-20 18:58N 51°54' E 004°21'0 0.0
2018-Feb-20 18:28N 51°54' E 004°21'0 0.0
2018-Feb-20 17:58N 51°54' E 004°21'0 0.0
2018-Feb-20 17:28N 51°54' E 004°21'0 0.0
2018-Feb-20 16:58N 51°54' E 004°21'0 0.0
2018-Feb-20 16:28N 51°54' E 004°21'0 0.0
2018-Feb-20 15:58N 51°54' E 004°21'0 0.0
2018-Feb-20 15:28N 51°54' E 004°21'0 0.0
2018-Feb-20 14:58N 51°54' E 004°21'0 0.0
2018-Feb-20 14:25N 51°54' E 004°21'0 0.0
2018-Feb-20 13:58N 51°54' E 004°21'0 0.0
2018-Feb-20 13:30N 51°54' E 004°21'1 2.2
2018-Feb-20 13:00N 51°54' E 004°20'4 8.3
2018-Feb-20 12:30N 51°55' E 004°14'5 9.0
2018-Feb-20 12:00N 51°58' E 004°08'510.0
2018-Feb-20 11:30N 51°60' E 004°00'5 9.8
2018-Feb-20 11:00N 51°59' E 003°52'4 7.7
2018-Feb-20 10:30N 51°58' E 003°47'1 1.8
2018-Feb-20 10:00N 51°57' E 003°46'0 0.1
2018-Feb-20 09:30N 51°57' E 003°46'0 0.1
2018-Feb-20 09:00N 51°57' E 003°46'0 0.0
2018-Feb-20 08:27N 51°57' E 003°46'0 0.1
2018-Feb-20 07:57N 51°57' E 003°46'0 0.1
2018-Feb-20 07:30N 51°57' E 003°46'0 0.0
2018-Feb-20 07:00N 51°57' E 003°46'0 0.0
2018-Feb-20 06:30N 51°57' E 003°46'0 0.0
2018-Feb-20 06:00N 51°57' E 003°46'0 0.0
2018-Feb-20 05:30N 51°57' E 003°46'0 0.0
2018-Feb-20 05:00N 51°57' E 003°46'0 0.0
2018-Feb-20 04:27N 51°57' E 003°46'0 0.0
2018-Feb-20 04:00N 51°57' E 003°46'0 0.0
2018-Feb-20 03:30N 51°57' E 003°46'0 0.0
2018-Feb-20 03:00N 51°57' E 003°46'0 0.1
2018-Feb-20 02:30N 51°57' E 003°46'0 0.1
2018-Feb-20 02:00N 51°57' E 003°46'0 0.0
2018-Feb-20 01:30N 51°57' E 003°46'0 0.1
2018-Feb-20 01:00N 51°57' E 003°46'0 0.0
2018-Feb-20 00:30N 51°57' E 003°46'0 0.0
2018-Feb-20 00:00N 51°57' E 003°46'0 0.0
2018-Feb-19 23:30N 51°57' E 003°46'0 0.0
2018-Feb-19 23:00N 51°57' E 003°46'0 0.0
2018-Feb-19 22:30N 51°57' E 003°46'0 0.0
2018-Feb-19 22:00N 51°57' E 003°46'0 0.0
2018-Feb-19 21:24N 51°57' E 003°46'0 0.1
2018-Feb-19 20:57N 51°57' E 003°46'0 0.1
2018-Feb-19 20:30N 51°57' E 003°46'0 0.1
2018-Feb-19 20:00N 51°57' E 003°46'0 0.0
2018-Feb-19 19:30N 51°57' E 003°46'0 0.0
2018-Feb-19 19:00N 51°57' E 003°46'0 0.0
2018-Feb-19 18:24N 51°57' E 003°46'0 0.0
2018-Feb-19 17:54N 51°57' E 003°46'0 0.0
2018-Feb-19 17:27N 51°57' E 003°46'0 0.0
2018-Feb-19 17:00N 51°57' E 003°46'0 0.0
2018-Feb-19 16:30N 51°57' E 003°46'0 0.0
2018-Feb-19 16:00N 51°57' E 003°46'0 0.0
2018-Feb-19 15:30N 51°57' E 003°46'0 0.0
2018-Feb-19 15:00N 51°57' E 003°46'0 0.1
2018-Feb-19 14:30N 51°57' E 003°46'0 0.1
2018-Feb-19 14:00N 51°57' E 003°46'0 0.0
2018-Feb-19 13:24N 51°57' E 003°46'0 0.1
2018-Feb-19 13:00N 51°57' E 003°46'0 0.1
2018-Feb-19 12:30N 51°57' E 003°46'0 0.0
2018-Feb-19 12:00N 51°57' E 003°46'0 0.0
2018-Feb-19 11:30N 51°57' E 003°46'0 0.0
2018-Feb-19 11:00N 51°57' E 003°46'0 0.0
2018-Feb-19 10:24N 51°57' E 003°46'0 0.0
2018-Feb-19 09:57N 51°57' E 003°46'0 0.1
2018-Feb-19 09:30N 51°57' E 003°46'0 0.1
2018-Feb-19 09:00N 51°57' E 003°46'0 0.1
2018-Feb-19 08:30N 51°57' E 003°46'0 0.0
2018-Feb-19 08:00N 51°57' E 003°46'0 0.0
2018-Feb-19 07:30N 51°57' E 003°46'0 0.0
2018-Feb-19 06:57N 51°57' E 003°46'0 0.0
2018-Feb-19 06:30N 51°57' E 003°46'0 0.0
2018-Feb-19 06:00N 51°57' E 003°46'0 0.0
2018-Feb-19 05:21N 51°57' E 003°46'0 0.0
2018-Feb-19 05:00N 51°57' E 003°46'0 0.0
2018-Feb-19 04:27N 51°57' E 003°46'0 0.0
2018-Feb-19 03:54N 51°57' E 003°46'0 0.0
2018-Feb-19 03:30N 51°57' E 003°46'1 1.9
2018-Feb-19 03:00N 51°58' E 003°46'510.4
2018-Feb-19 02:30N 52°03' E 003°45'611.2
2018-Feb-19 02:00N 52°09' E 003°45'612.1
2018-Feb-19 01:31N 52°15' E 003°46'612.4
2018-Feb-19 01:00N 52°21' E 003°48'612.8
2018-Feb-19 00:30N 52°27' E 003°50'713.0
2018-Feb-18 23:59N 52°34' E 003°52'613.2
2018-Feb-18 23:31N 52°40' E 003°54'713.2
2018-Feb-18 22:58N 52°47' E 003°57'713.2
2018-Feb-18 22:28N 52°53' E 003°59'612.5
2018-Feb-18 21:58N 52°59' E 004°04'712.5
2018-Feb-18 21:24N 53°04' E 004°12'512.0
2018-Feb-18 20:57N 53°08' E 004°18'611.6
2018-Feb-18 20:28N 53°12' E 004°24'511.5
2018-Feb-18 20:00N 53°17' E 004°27'711.1
2018-Feb-18 19:21N 53°24' E 004°32'410.9
2018-Feb-18 18:57N 53°28' E 004°34'511.1
2018-Feb-18 18:30N 53°33' E 004°37'811.3
2018-Feb-18 17:47N 53°40' E 004°42'311.9
2018-Feb-18 17:30N 53°43' E 004°44'19811.7
2018-Feb-18 00:30N 56°40' E 007°23'711.8
2018-Feb-17 23:57N 56°45' E 007°29'511.9
2018-Feb-17 23:30N 56°50' E 007°34'612.0
2018-Feb-17 23:00N 56°55' E 007°39'612.0
2018-Feb-17 22:29N 56°60' E 007°46'611.9
2018-Feb-17 22:01N 57°04' E 007°53'6312.2
2018-Feb-17 16:52N 57°54' E 009°04'612.9
2018-Feb-17 16:27N 57°58' E 009°11'612.8
2018-Feb-17 15:59N 58°03' E 009°18'712.4
2018-Feb-17 15:23N 58°09' E 009°26'3012.7
2018-Feb-17 13:04N 58°32' E 010°01'112.9
2018-Feb-17 13:01N 58°32' E 010°02'612.7
2018-Feb-17 12:31N 58°38' E 010°09'612.6
2018-Feb-17 12:00N 58°42' E 010°17'612.5
2018-Feb-17 11:31N 58°47' E 010°24'611.7
2018-Feb-17 11:01N 58°52' E 010°31'612.3
2018-Feb-17 10:30N 58°57' E 010°38'612.4
2018-Feb-17 10:01N 59°02' E 010°46'611.8
2018-Feb-17 09:31N 59°01' E 010°58'611.4
2018-Feb-17 09:00N 59°07' E 010°58'5 9.3
2018-Feb-17 08:30N 59°12' E 010°57'0 0.0
2018-Feb-17 07:59N 59°12' E 010°57'0 0.0
2018-Feb-17 07:29N 59°12' E 010°57'0 0.0
2018-Feb-17 06:58N 59°12' E 010°57'0 0.0
2018-Feb-17 06:28N 59°12' E 010°57'0 0.0
2018-Feb-17 05:59N 59°12' E 010°57'0 0.0
2018-Feb-17 05:29N 59°12' E 010°57'0 0.0
2018-Feb-17 04:59N 59°12' E 010°57'0 0.0
2018-Feb-17 04:29N 59°12' E 010°57'0 0.0
2018-Feb-17 03:59N 59°12' E 010°57'0 0.0
2018-Feb-17 03:29N 59°12' E 010°57'0 0.0
2018-Feb-17 02:59N 59°12' E 010°57'0 0.0
2018-Feb-17 02:29N 59°12' E 010°57'0 0.0
2018-Feb-17 01:59N 59°12' E 010°57'0 0.0
2018-Feb-17 01:29N 59°12' E 010°57'0 0.0
2018-Feb-17 00:58N 59°12' E 010°57'0 0.0
2018-Feb-17 00:29N 59°12' E 010°57'0 0.0
2018-Feb-16 23:59N 59°12' E 010°57'0 0.0
2018-Feb-16 23:29N 59°12' E 010°57'0 0.0
2018-Feb-16 22:59N 59°12' E 010°57'0 0.0
2018-Feb-16 22:29N 59°12' E 010°57'0 0.0
2018-Feb-16 21:58N 59°12' E 010°57'0 0.0
2018-Feb-16 21:29N 59°12' E 010°57'0 0.0
2018-Feb-16 20:59N 59°12' E 010°57'0 0.0
2018-Feb-16 20:28N 59°12' E 010°57'0 0.0
2018-Feb-16 19:59N 59°12' E 010°57'0 0.0
2018-Feb-16 19:28N 59°12' E 010°57'0 0.0
2018-Feb-16 18:59N 59°12' E 010°57'0 0.0
2018-Feb-16 18:28N 59°12' E 010°57'0 0.0
2018-Feb-16 17:59N 59°12' E 010°57'0 0.0
2018-Feb-16 17:29N 59°12' E 010°57'0 0.0
2018-Feb-16 16:59N 59°12' E 010°57'0 0.0
2018-Feb-16 16:28N 59°12' E 010°57'0 0.0
2018-Feb-16 15:58N 59°12' E 010°57'0 0.0
2018-Feb-16 15:28N 59°12' E 010°57'0 0.0
2018-Feb-16 14:59N 59°12' E 010°57'0 0.0
2018-Feb-16 14:29N 59°12' E 010°57'0 0.0
2018-Feb-16 13:59N 59°12' E 010°57'0 0.0
2018-Feb-16 13:29N 59°12' E 010°57'0 0.0
2018-Feb-16 12:59N 59°12' E 010°57'0 0.0
2018-Feb-16 12:29N 59°12' E 010°57'0 0.0
2018-Feb-16 12:01N 59°12' E 010°57'3 6.1
2018-Feb-16 11:31N 59°09' E 010°58'611.4
2018-Feb-16 11:00N 59°03' E 010°58'4 8.4
2018-Feb-16 10:31N 59°01' E 010°50'5 9.8
2018-Feb-16 10:01N 58°59' E 010°43'611.8
2018-Feb-16 09:30N 58°53' E 010°42'612.6
2018-Feb-16 09:00N 58°46' E 010°42'714.0
2018-Feb-16 08:30N 58°40' E 010°46'713.8
2018-Feb-16 08:00N 58°33' E 010°51'713.5
2018-Feb-16 07:31N 58°27' E 010°55'714.4
2018-Feb-16 07:01N 58°20' E 011°00'714.2
2018-Feb-16 06:31N 58°14' E 011°05'714.2
2018-Feb-16 06:01N 58°07' E 011°09'714.6
2018-Feb-16 05:31N 57°60' E 011°14'713.7
2018-Feb-16 05:00N 57°53' E 011°19'612.0
2018-Feb-16 04:30N 57°48' E 011°22'611.6
2018-Feb-16 04:01N 57°42' E 011°26'611.0
2018-Feb-16 03:30N 57°38' E 011°32'5 9.2
2018-Feb-16 03:00N 57°38' E 011°41'5 9.0
2018-Feb-16 02:30N 57°40' E 011°47'0 0.3
2018-Feb-16 02:00N 57°40' E 011°47'0 0.0
2018-Feb-16 01:30N 57°40' E 011°47'0 0.0
2018-Feb-16 01:00N 57°40' E 011°47'0 0.0
2018-Feb-16 00:27N 57°40' E 011°47'0 0.0
2018-Feb-16 00:00N 57°40' E 011°47'0 0.0
2018-Feb-15 23:30N 57°40' E 011°47'0 0.0
2018-Feb-15 23:00N 57°40' E 011°47'0 0.0
2018-Feb-15 22:30N 57°40' E 011°47'0 0.1
2018-Feb-15 22:00N 57°40' E 011°47'0 0.1
2018-Feb-15 21:30N 57°40' E 011°47'3 6.3
2018-Feb-15 21:01N 57°39' E 011°42'612.0
2018-Feb-15 20:30N 57°33' E 011°38'611.9
2018-Feb-15 20:00N 57°27' E 011°38'612.4
2018-Feb-15 19:30N 57°21' E 011°40'612.8
2018-Feb-15 19:00N 57°15' E 011°41'713.1
2018-Feb-15 18:30N 57°08' E 011°40'613.1
2018-Feb-15 18:00N 57°02' E 011°44'4013.0
2018-Feb-15 14:54N 56°24' E 012°08'513.0
2018-Feb-15 14:30N 56°20' E 012°15'713.5
2018-Feb-15 14:00N 56°15' E 012°22'713.3
2018-Feb-15 13:30N 56°10' E 012°30'816.4
2018-Feb-15 13:00N 56°03' E 012°39'714.1
2018-Feb-15 12:31N 55°57' E 012°43'713.3
2018-Feb-15 12:00N 55°50' E 012°44'713.1
2018-Feb-15 11:31N 55°44' E 012°41'713.6
2018-Feb-15 11:01N 55°37' E 012°42'510.9
2018-Feb-15 10:31N 55°32' E 012°43'612.8
2018-Feb-15 10:00N 55°25' E 012°41'612.5
2018-Feb-15 09:30N 55°19' E 012°41'611.9
2018-Feb-15 09:00N 55°16' E 012°50'612.3
2018-Feb-15 08:31N 55°16' E 013°01'612.2
2018-Feb-15 08:00N 55°15' E 013°12'612.4
2018-Feb-15 07:30N 55°15' E 013°23'1312.2
2018-Feb-15 06:25N 55°14' E 013°46'812.4
2018-Feb-15 05:48N 55°14' E 013°59'412.4
2018-Feb-15 05:28N 55°14' E 014°07'612.1
2018-Feb-15 05:00N 55°14' E 014°17'611.8
2018-Feb-15 04:30N 55°19' E 014°23'611.9
2018-Feb-15 04:01N 55°23' E 014°31'612.1
2018-Feb-15 03:29N 55°26' E 014°40'612.2
2018-Feb-15 03:01N 55°29' E 014°49'612.1
2018-Feb-15 02:31N 55°31' E 014°59'612.1
2018-Feb-15 02:00N 55°33' E 015°09'612.1
2018-Feb-15 01:31N 55°34' E 015°19'612.1
2018-Feb-15 01:00N 55°36' E 015°30'612.3
2018-Feb-15 00:30N 55°38' E 015°40'612.3
2018-Feb-15 00:01N 55°41' E 015°50'612.3
2018-Feb-14 23:30N 55°43' E 016°00'612.3
2018-Feb-14 23:01N 55°44' E 016°11'612.5
2018-Feb-14 22:30N 55°46' E 016°22'612.4
2018-Feb-14 22:01N 55°47' E 016°32'612.4
2018-Feb-14 21:30N 55°49' E 016°43'612.3
2018-Feb-14 21:00N 55°51' E 016°53'  

Dump ship's entire track history